Time;durP1;ratioP1;P1;durP2;ratioP2;P2;SDS_P1;SDS_P2;PMS_P1;PMS_P2;Temp;Humidity;BMP_temperature;BMP_pressure;BME280_temperature;BME280_humidity;BME280_pressure;Samples;Min_cycle;Max_cycle;Signal;HPM_P1;HPM_P2
2023/07/09 00:01:05;;;;;;;11.52;7.05;;;;;;;17.84;59.42;99540.03;5072352;28;20024;-72
2023/07/09 00:03:31;;;;;;;16.58;8.13;;;;;;;17.92;59.45;99554.38;5073289;28;20058;-62
2023/07/09 00:05:56;;;;;;;17.00;8.55;;;;;;;17.90;59.24;99551.00;5082321;28;20115;-63
2023/07/09 00:08:31;;;;;;;12.68;8.23;;;;;;;17.89;59.60;99543.91;5092508;28;20040;-60
2023/07/09 00:10:58;;;;;;;16.90;8.20;;;;;;;17.87;59.25;99551.34;5091425;28;20467;-61
2023/07/09 00:13:25;;;;;;;24.90;9.23;;;;;;;17.86;59.18;99555.09;5091744;28;20363;-61
2023/07/09 00:15:52;;;;;;;15.02;8.38;;;;;;;17.80;59.47;99547.66;5092003;28;20044;-60
2023/07/09 00:18:18;;;;;;;13.00;7.38;;;;;;;17.82;59.43;99552.91;5092328;28;20081;-61
2023/07/09 00:20:43;;;;;;;16.08;7.85;;;;;;;17.79;59.51;99543.25;5089466;28;20028;-61
2023/07/09 00:23:13;;;;;;;17.08;7.35;;;;;;;17.60;59.82;99509.38;5091832;28;20078;-61
2023/07/09 00:25:44;;;;;;;14.70;8.52;;;;;;;17.79;59.99;99545.97;5078432;28;20036;-61
2023/07/09 00:28:17;;;;;;;17.83;8.57;;;;;;;17.77;60.57;99543.44;5071355;28;20036;-61
2023/07/09 00:30:47;;;;;;;18.00;8.65;;;;;;;17.73;60.17;99538.56;5054027;28;20090;-61
2023/07/09 00:33:15;;;;;;;14.50;7.63;;;;;;;17.68;60.44;99530.97;5071193;28;20429;-63
2023/07/09 00:35:42;;;;;;;17.98;8.70;;;;;;;17.67;60.70;99533.88;5037554;28;20024;-62
2023/07/09 00:38:13;;;;;;;17.52;8.60;;;;;;;17.69;60.77;99531.81;5071582;28;20407;-61
2023/07/09 00:40:46;;;;;;;21.52;8.65;;;;;;;17.67;60.79;99528.44;5072395;28;20026;-61
2023/07/09 00:43:16;;;;;;;16.77;8.38;;;;;;;17.62;61.05;99534.38;5071720;28;20033;-61
2023/07/09 00:45:41;;;;;;;15.25;8.30;;;;;;;17.53;61.34;99520.06;5074199;28;20033;-60
2023/07/09 00:48:15;;;;;;;13.57;8.98;;;;;;;17.59;60.95;99522.03;5075921;28;20086;-72
2023/07/09 00:50:47;;;;;;;12.35;8.43;;;;;;;17.53;61.13;99520.06;5075269;28;20059;-61
2023/07/09 00:53:45;;;;;;;15.68;8.77;;;;;;;17.64;61.08;99516.97;5075060;28;20119;-61
2023/07/09 00:56:15;;;;;;;18.63;8.38;;;;;;;17.55;61.12;99514.47;5073776;28;20118;-62
2023/07/09 00:58:47;;;;;;;13.32;8.48;;;;;;;17.49;61.29;99505.19;5075143;28;20470;-60
2023/07/09 01:01:15;;;;;;;14.05;8.82;;;;;;;17.48;61.36;99503.50;5075533;28;20073;-62
2023/07/09 01:03:59;;;;;;;12.48;8.60;;;;;;;17.53;61.12;99506.50;5074635;28;20036;-62
2023/07/09 01:06:39;;;;;;;13.73;8.18;;;;;;;17.44;61.56;99502.19;5074564;28;20044;-60
2023/07/09 01:09:07;;;;;;;16.65;8.10;;;;;;;17.41;61.82;99516.06;5076027;28;20468;-61
2023/07/09 01:11:33;;;;;;;16.02;8.57;;;;;;;17.36;61.56;99500.34;5074300;28;20116;-60
2023/07/09 01:14:02;;;;;;;16.17;7.80;;;;;;;17.19;61.56;99461.72;5073675;28;20148;-61
2023/07/09 01:16:31;;;;;;;14.40;7.85;;;;;;;17.43;61.63;99504.03;5073923;28;20408;-61
2023/07/09 01:18:57;;;;;;;14.30;7.75;;;;;;;17.40;61.67;99506.25;5074497;28;20403;-60
2023/07/09 01:21:22;;;;;;;13.77;8.52;;;;;;;17.37;61.68;99493.91;5075499;28;20033;-63
2023/07/09 01:23:49;;;;;;;14.40;8.80;;;;;;;17.42;61.79;99510.47;5075757;28;20063;-61
2023/07/09 01:26:24;;;;;;;13.63;8.18;;;;;;;17.24;61.59;99467.44;5074881;28;20352;-61
2023/07/09 01:28:51;;;;;;;15.02;8.18;;;;;;;17.47;60.76;99504.53;5073302;28;20025;-61
2023/07/09 01:31:17;;;;;;;17.70;8.40;;;;;;;17.49;61.23;99505.19;5089695;28;20060;-62
2023/07/09 01:33:47;;;;;;;14.93;8.15;;;;;;;17.34;60.87;99481.56;5094166;28;20064;-61
2023/07/09 01:36:22;;;;;;;11.00;7.97;;;;;;;17.28;61.17;99471.47;5094817;28;20111;-61
2023/07/09 01:38:49;;;;;;;15.95;8.07;;;;;;;17.52;60.98;99498.59;5094249;28;20032;-61
2023/07/09 01:41:15;;;;;;;13.48;8.40;;;;;;;17.38;61.61;99482.06;5094076;28;20039;-60
2023/07/09 01:43:42;;;;;;;19.67;8.15;;;;;;;17.53;61.13;99501.09;5092754;28;20032;-73
2023/07/09 01:46:09;;;;;;;13.38;8.20;;;;;;;17.59;61.55;99505.78;5094961;28;20113;-60
2023/07/09 01:48:40;;;;;;;14.63;8.05;;;;;;;17.59;61.04;99505.78;5093001;28;20035;-61
2023/07/09 01:51:11;;;;;;;13.15;7.70;;;;;;;17.68;61.13;99503.88;5092544;28;20027;-61
2023/07/09 01:53:37;;;;;;;14.32;8.20;;;;;;;17.67;60.92;99501.38;5094924;28;20127;-61
2023/07/09 01:56:03;;;;;;;13.35;7.85;;;;;;;17.69;60.97;99494.75;5093573;28;20028;-62
2023/07/09 01:58:30;;;;;;;15.05;8.07;;;;;;;17.73;60.90;99489.81;5090912;28;20530;-61
2023/07/09 02:00:56;;;;;;;10.52;8.23;;;;;;;17.78;60.53;99492.84;5093849;28;20023;-61
2023/07/09 02:03:24;;;;;;;14.23;8.13;;;;;;;17.83;60.55;99490.44;5094152;28;20028;-60
2023/07/09 02:05:52;;;;;;;13.45;7.75;;;;;;;17.92;60.40;99499.34;5093327;28;20096;-61
2023/07/09 02:08:18;;;;;;;11.43;7.85;;;;;;;17.96;60.45;99494.41;5093475;28;20063;-67
2023/07/09 02:10:44;;;;;;;13.40;7.88;;;;;;;18.03;59.94;99496.25;5092770;28;20436;-61
2023/07/09 02:13:10;;;;;;;13.75;7.90;;;;;;;18.07;59.61;99494.00;5092374;28;20027;-59
2023/07/09 02:15:36;;;;;;;14.52;8.45;;;;;;;18.14;59.28;99486.00;5067337;28;20032;-61
2023/07/09 02:18:02;;;;;;;11.35;7.95;;;;;;;18.26;59.32;99489.13;5088776;28;20024;-61
2023/07/09 02:20:47;;;;;;;15.75;8.65;;;;;;;18.48;57.75;99488.25;5093047;28;20042;-61
2023/07/09 02:23:13;;;;;;;13.82;8.52;;;;;;;18.74;57.38;99489.69;5092444;28;20032;-66
2023/07/09 02:25:39;;;;;;;17.20;8.57;;;;;;;19.00;56.21;99484.88;5093755;28;20032;-62
2023/07/09 02:28:04;;;;;;;14.45;8.45;;;;;;;19.28;55.30;99470.63;5092369;28;20020;-61
2023/07/09 02:30:30;;;;;;;13.63;8.30;;;;;;;19.57;55.12;99486.03;5093357;28;20064;-61
2023/07/09 02:32:56;;;;;;;14.48;8.25;;;;;;;19.86;53.61;99484.25;5087507;28;20029;-61
2023/07/09 02:35:22;;;;;;;16.48;8.80;;;;;;;20.18;53.33;99484.78;5072955;28;20025;-60
2023/07/09 02:37:47;;;;;;;16.65;8.70;;;;;;;20.30;51.98;99454.34;5072874;28;20071;-61
2023/07/09 02:40:15;;;;;;;13.50;8.63;;;;;;;20.64;50.68;99448.13;5087269;28;20064;-69
2023/07/09 02:42:41;;;;;;;14.07;8.63;;;;;;;21.13;50.51;99480.03;5093196;28;20036;-60
2023/07/09 02:45:07;;;;;;;10.80;7.72;;;;;;;21.19;50.40;99454.72;5093026;28;20517;-59
2023/07/09 02:47:32;;;;;;;15.75;9.13;;;;;;;21.45;48.83;99472.19;5093572;28;20375;-59
2023/07/09 02:49:58;;;;;;;12.27;7.78;;;;;;;21.51;49.71;99474.13;5092836;28;20032;-61
2023/07/09 02:52:24;;;;;;;16.95;8.65;;;;;;;21.31;48.36;99438.63;5092773;28;20077;-62
2023/07/09 02:54:49;;;;;;;17.40;8.40;;;;;;;21.44;48.88;99470.50;5091501;28;20036;-61
2023/07/09 02:57:15;;;;;;;16.75;8.80;;;;;;;21.39;48.79;99475.72;5092614;28;20024;-69
2023/07/09 02:59:40;;;;;;;17.15;8.10;;;;;;;21.36;49.79;99480.56;5092032;28;20028;-60
2023/07/09 03:02:06;;;;;;;11.63;8.05;;;;;;;21.35;49.07;99476.16;5091347;28;20024;-61
2023/07/09 03:04:32;;;;;;;15.38;8.32;;;;;;;21.42;49.01;99476.19;5092155;28;20390;-60
2023/07/09 03:06:59;;;;;;;14.45;8.38;;;;;;;21.56;48.62;99468.03;5092381;28;20052;-61
2023/07/09 03:09:25;;;;;;;16.67;8.30;;;;;;;21.84;47.71;99484.28;5092642;28;20123;-62
2023/07/09 03:11:51;;;;;;;13.27;8.13;;;;;;;22.23;45.93;99474.50;5092172;28;20110;-60
2023/07/09 03:14:16;;;;;;;12.77;7.65;;;;;;;22.65;45.30;99457.06;5089581;28;20103;-63
2023/07/09 03:16:42;;;;;;;13.20;8.23;;;;;;;23.08;43.80;99442.88;5092777;28;20036;-60
2023/07/09 03:19:07;;;;;;;13.55;7.88;;;;;;;23.72;43.18;99457.75;5091054;28;20063;-60
2023/07/09 03:21:33;;;;;;;17.58;7.70;;;;;;;24.03;40.70;99450.63;5092922;28;20040;-61
2023/07/09 03:23:59;;;;;;;12.88;7.72;;;;;;;24.44;40.00;99438.31;5080754;28;20062;-61
2023/07/09 03:26:25;;;;;;;12.68;7.60;;;;;;;25.08;38.46;99459.13;5072635;28;20346;-60
2023/07/09 03:28:52;;;;;;;12.45;7.57;;;;;;;25.50;37.94;99453.81;5091786;28;20039;-60
2023/07/09 03:31:17;;;;;;;15.77;7.47;;;;;;;25.98;36.81;99464.06;5092805;28;20035;-61
2023/07/09 03:33:43;;;;;;;18.73;7.78;;;;;;;26.31;35.30;99454.53;5073033;28;20028;-60
2023/07/09 03:36:09;;;;;;;12.80;7.20;;;;;;;26.67;35.06;99455.34;5092296;28;20118;-60
2023/07/09 03:38:34;;;;;;;14.10;6.85;;;;;;;27.00;35.26;99448.41;5092691;28;20122;-60
2023/07/09 03:41:00;;;;;;;10.38;6.63;;;;;;;27.27;34.52;99450.63;5092934;28;20329;-62
2023/07/09 03:43:25;;;;;;;12.00;5.35;;;;;;;27.54;32.91;99458.34;5092412;28;20100;-60
2023/07/09 03:45:51;;;;;;;9.40;5.10;;;;;;;27.51;32.29;99458.84;5090524;28;20107;-62
2023/07/09 03:48:19;;;;;;;10.52;4.82;;;;;;;27.56;32.21;99463.56;5092570;28;20035;-72
2023/07/09 03:50:46;;;;;;;7.57;4.43;;;;;;;27.56;31.29;99450.69;5092984;28;20036;-61
2023/07/09 03:53:12;;;;;;;9.15;4.97;;;;;;;27.55;31.96;99460.00;5091130;28;20456;-62
2023/07/09 03:55:38;;;;;;;6.15;4.07;;;;;;;27.47;31.83;99468.59;5092007;28;20047;-60
2023/07/09 03:58:03;;;;;;;9.48;3.67;;;;;;;27.29;32.01;99455.88;5092301;28;20024;-62
2023/07/09 04:00:30;;;;;;;6.00;4.00;;;;;;;27.25;32.15;99461.03;5090772;28;20126;-61
2023/07/09 04:02:58;;;;;;;5.50;3.90;;;;;;;27.14;31.67;99456.38;5090629;28;20108;-60
2023/07/09 04:05:25;;;;;;;7.32;4.00;;;;;;;27.17;31.79;99458.66;5091891;28;20023;-60
2023/07/09 04:07:51;;;;;;;8.88;4.05;;;;;;;27.34;32.73;99458.72;5089756;28;20059;-60
2023/07/09 04:10:17;;;;;;;6.32;3.65;;;;;;;27.45;32.58;99444.13;5092712;28;20051;-60
2023/07/09 04:12:43;;;;;;;4.32;3.83;;;;;;;27.74;32.01;99444.13;5091850;28;20039;-61
2023/07/09 04:15:09;;;;;;;6.95;3.90;;;;;;;28.30;31.08;99453.63;5091932;28;20143;-61
2023/07/09 04:17:35;;;;;;;10.02;4.10;;;;;;;29.08;29.22;99428.88;5091934;28;20032;-60
2023/07/09 04:20:05;;;;;;;7.78;4.30;;;;;;;30.38;27.65;99452.25;5093362;28;20028;-60
2023/07/09 04:22:31;;;;;;;6.57;4.25;;;;;;;31.03;26.11;99452.13;5094041;28;20031;-62
2023/07/09 04:24:57;;;;;;;6.15;4.00;;;;;;;31.60;25.77;99443.22;5095468;28;20078;-61
2023/07/09 04:27:27;;;;;;;5.70;3.83;;;;;;;32.41;24.52;99445.50;5093215;28;20032;-62
2023/07/09 04:29:53;;;;;;;5.93;3.53;;;;;;;33.34;23.63;99446.09;5094669;28;20432;-62
2023/07/09 04:32:19;;;;;;;4.70;3.70;;;;;;;34.31;22.14;99444.91;5095904;28;20038;-62
2023/07/09 04:34:45;;;;;;;8.27;3.75;;;;;;;35.32;20.75;99440.47;5096116;28;20043;-62
2023/07/09 04:37:11;;;;;;;11.93;4.63;;;;;;;35.92;20.28;99422.31;5095842;28;20046;-63
2023/07/09 04:39:38;;;;;;;7.45;4.40;;;;;;;36.10;20.41;99433.78;5095580;28;20048;-61
2023/07/09 04:42:06;;;;;;;10.68;3.97;;;;;;;36.72;19.21;99435.47;5095712;28;20028;-65
2023/07/09 04:44:31;;;;;;;3.58;3.10;;;;;;;37.12;18.28;99425.75;5085732;28;20032;-65
2023/07/09 04:46:57;;;;;;;7.05;3.63;;;;;;;37.60;17.98;99416.88;5074975;28;20039;-63
2023/07/09 04:49:22;;;;;;;5.18;3.63;;;;;;;37.90;17.61;99424.84;5075924;28;20028;-66
2023/07/09 04:51:48;;;;;;;6.47;3.80;;;;;;;38.61;16.98;99429.75;5074604;28;20029;-65
2023/07/09 04:54:14;;;;;;;7.47;3.78;;;;;;;38.95;16.94;99421.00;5075024;28;20094;-63
2023/07/09 04:56:44;;;;;;;6.95;3.80;;;;;;;39.55;16.67;99422.28;5074805;28;20445;-64
2023/07/09 04:59:11;;;;;;;4.90;3.65;;;;;;;40.35;15.99;99414.63;5074557;28;20028;-63
2023/07/09 05:01:37;;;;;;;5.97;3.90;;;;;;;40.82;14.87;99418.59;5074310;28;20405;-63
2023/07/09 05:04:02;;;;;;;5.25;3.80;;;;;;;41.46;14.87;99413.88;5077672;28;20054;-62
2023/07/09 05:06:28;;;;;;;6.90;3.95;;;;;;;42.14;14.23;99390.28;5074809;28;20041;-67
2023/07/09 05:08:54;;;;;;;4.25;3.25;;;;;;;43.33;13.30;99414.28;5075176;28;20048;-64
2023/07/09 05:11:19;;;;;;;6.18;2.97;;;;;;;43.82;12.22;99414.13;5074113;28;20540;-69
2023/07/09 05:13:45;;;;;;;4.80;3.10;;;;;;;43.86;12.00;99409.41;5074325;28;20032;-67
2023/07/09 05:16:10;;;;;;;3.42;2.72;;;;;;;43.55;12.38;99410.13;5074579;28;20238;-67
2023/07/09 05:18:36;;;;;;;5.47;2.83;;;;;;;43.33;12.35;99403.00;5074177;28;20326;-66
2023/07/09 05:21:02;;;;;;;2.78;2.28;;;;;;;43.45;11.89;99403.00;5073588;28;20391;-66
2023/07/09 05:23:28;;;;;;;6.72;3.42;;;;;;;44.00;11.95;99388.44;5074493;28;20024;-66
2023/07/09 05:26:02;;;;;;;3.88;2.20;;;;;;;44.48;11.43;99407.41;5075499;28;20040;-67
2023/07/09 05:28:28;;;;;;;3.95;2.42;;;;;;;44.50;11.05;99411.53;5072391;28;20078;-67
2023/07/09 05:30:54;;;;;;;2.83;2.42;;;;;;;44.77;11.08;99394.88;5072806;28;20036;-68
2023/07/09 05:33:19;;;;;;;4.15;2.78;;;;;;;45.14;10.62;99391.69;5073014;28;20040;-67
2023/07/09 05:35:45;;;;;;;4.35;2.97;;;;;;;45.00;10.96;99403.47;5073257;28;20186;-66
2023/07/09 05:38:12;;;;;;;4.10;2.78;;;;;;;44.55;11.04;99376.56;5072885;28;20037;-67
2023/07/09 05:40:38;;;;;;;3.22;2.80;;;;;;;44.33;10.88;99370.38;5072519;28;20131;-67
2023/07/09 05:43:04;;;;;;;4.50;2.60;;;;;;;44.25;11.12;99402.41;5074458;28;20174;-67
2023/07/09 05:45:30;;;;;;;3.28;2.20;;;;;;;43.37;11.31;99384.22;5074161;28;20040;-65
2023/07/09 05:47:57;;;;;;;5.35;2.45;;;;;;;43.17;11.46;99407.38;5073720;28;20021;-65
2023/07/09 05:50:23;;;;;;;3.40;2.20;;;;;;;42.77;11.91;99396.00;5072358;28;20116;-65
2023/07/09 05:52:48;;;;;;;3.92;2.28;;;;;;;42.97;11.78;99397.06;5073651;28;20159;-66
2023/07/09 05:55:14;;;;;;;4.40;1.92;;;;;;;43.58;10.94;99396.13;5073091;28;20456;-66
2023/07/09 05:57:39;;;;;;;3.20;2.58;;;;;;;44.00;10.82;99394.06;5075664;28;20098;-66
2023/07/09 06:00:08;;;;;;;5.68;2.60;;;;;;;44.26;10.76;99404.88;5077087;28;20096;-67
2023/07/09 06:02:33;;;;;;;4.10;1.92;;;;;;;44.13;10.82;99395.69;5073287;28;20372;-66
2023/07/09 06:04:59;;;;;;;2.70;1.90;;;;;;;43.59;11.41;99389.28;5073681;28;20024;-65
2023/07/09 06:07:24;;;;;;;2.80;2.17;;;;;;;43.10;11.33;99384.63;5073585;28;20044;-66
2023/07/09 06:09:50;;;;;;;3.35;2.13;;;;;;;42.75;11.86;99391.56;5072829;28;20036;-67
2023/07/09 06:12:15;;;;;;;3.97;2.38;;;;;;;41.98;12.30;99383.69;5073105;28;20058;-62
2023/07/09 06:14:41;;;;;;;5.10;2.28;;;;;;;40.97;13.04;99361.03;5072121;28;20046;-62
2023/07/09 06:17:07;;;;;;;3.40;2.28;;;;;;;40.24;13.57;99388.06;5072994;28;20078;-61
2023/07/09 06:19:32;;;;;;;4.28;2.40;;;;;;;40.02;13.80;99389.94;5078112;28;20032;-62
2023/07/09 06:21:58;;;;;;;4.32;2.50;;;;;;;40.43;13.61;99366.09;5093968;28;20050;-63
2023/07/09 06:24:24;;;;;;;3.55;2.45;;;;;;;40.82;13.49;99384.91;5065435;28;20035;-63
2023/07/09 06:26:50;;;;;;;5.20;2.67;;;;;;;41.59;13.22;99384.72;5073343;28;20028;-62
2023/07/09 06:29:15;;;;;;;3.33;2.42;;;;;;;41.61;12.93;99368.34;5073309;28;20033;-62
2023/07/09 06:31:42;;;;;;;3.35;2.53;;;;;;;41.86;12.57;99379.66;5073402;28;20050;-62
2023/07/09 06:34:09;;;;;;;7.28;2.70;;;;;;;42.57;11.98;99350.75;5072961;28;20053;-61
2023/07/09 06:36:35;;;;;;;3.67;2.53;;;;;;;43.64;11.52;99384.56;5073587;28;20024;-62
2023/07/09 06:39:01;;;;;;;4.38;2.30;;;;;;;45.05;10.31;99376.13;5073246;28;20060;-62
2023/07/09 06:41:27;;;;;;;2.70;2.50;;;;;;;45.72;9.90;99367.50;5086322;28;20494;-62
2023/07/09 06:43:53;;;;;;;4.28;2.45;;;;;;;46.94;8.85;99370.00;5087949;28;20020;-63
2023/07/09 06:46:19;;;;;;;3.63;2.40;;;;;;;47.93;8.67;99358.66;5093431;28;20024;-63
2023/07/09 06:48:45;;;;;;;2.70;2.22;;;;;;;48.70;8.27;99374.34;5093178;28;20032;-63
2023/07/09 06:51:10;;;;;;;3.47;2.45;;;;;;;48.63;7.95;99343.88;5092391;28;20409;-63
2023/07/09 06:53:36;;;;;;;3.08;2.50;;;;;;;49.72;7.54;99341.56;5090921;28;20460;-62
2023/07/09 06:56:02;;;;;;;3.42;2.38;;;;;;;50.79;7.17;99364.78;5093026;28;20409;-62
2023/07/09 06:58:31;;;;;;;4.25;2.78;;;;;;;50.96;6.78;99362.31;5093084;28;20425;-62
2023/07/09 07:00:57;;;;;;;4.32;2.45;;;;;;;51.11;6.71;99348.81;5093090;28;20028;-63
2023/07/09 07:03:24;;;;;;;2.50;2.30;;;;;;;50.38;7.19;99353.84;5093537;28;20035;-62
2023/07/09 07:05:55;;;;;;;4.72;2.35;;;;;;;46.90;8.58;99346.47;5081920;28;20060;-63
2023/07/09 07:08:23;;;;;;;2.42;2.20;;;;;;;43.43;11.14;99346.19;5073640;28;20039;-63
2023/07/09 07:10:50;;;;;;;2.50;2.30;;;;;;;41.63;12.27;99341.88;5093409;28;20509;-62
2023/07/09 07:13:15;;;;;;;6.43;2.40;;;;;;;39.23;14.21;99336.75;5087492;28;20036;-62
2023/07/09 07:15:41;;;;;;;4.35;2.38;;;;;;;40.84;13.09;99326.44;5072268;28;20036;-63
2023/07/09 07:18:07;;;;;;;5.03;2.10;;;;;;;44.01;10.60;99323.22;5071513;28;20115;-62
2023/07/09 07:20:34;;;;;;;3.05;2.30;;;;;;;46.86;8.74;99334.25;5073046;28;20040;-63
2023/07/09 07:22:59;;;;;;;3.50;1.90;;;;;;;46.10;9.27;99328.19;5073061;28;20033;-63
2023/07/09 07:25:25;;;;;;;4.28;1.80;;;;;;;44.26;10.01;99325.06;5073989;28;20102;-63
2023/07/09 07:27:51;;;;;;;3.85;2.10;;;;;;;42.80;10.91;99322.94;5071764;28;20025;-63
2023/07/09 07:30:17;;;;;;;3.70;1.90;;;;;;;44.03;10.34;99329.31;5072639;28;20448;-62
2023/07/09 07:32:47;;;;;;;3.45;2.35;;;;;;;43.08;10.90;99330.66;5073644;28;20028;-66
2023/07/09 07:35:13;;;;;;;2.83;2.03;;;;;;;40.05;12.88;99305.19;5071434;28;20317;-63
2023/07/09 07:37:40;;;;;;;2.72;1.98;;;;;;;37.20;15.26;99317.00;5072225;28;20177;-63
2023/07/09 07:40:06;;;;;;;7.25;2.00;;;;;;;37.01;15.52;99331.13;5071789;28;20432;-63
2023/07/09 07:42:32;;;;;;;2.83;2.15;;;;;;;36.52;16.14;99325.16;5072581;28;20502;-62
2023/07/09 07:44:58;;;;;;;2.22;2.03;;;;;;;36.20;16.85;99322.16;5072197;28;20032;-72
2023/07/09 07:47:24;;;;;;;3.65;1.90;;;;;;;36.58;15.59;99323.09;5085408;28;20439;-63
2023/07/09 07:49:49;;;;;;;4.45;2.20;;;;;;;38.48;14.41;99321.63;5092530;28;20080;-63
2023/07/09 07:52:15;;;;;;;2.88;2.30;;;;;;;42.25;12.13;99316.75;5092675;28;20032;-63
2023/07/09 07:54:41;;;;;;;3.85;2.20;;;;;;;45.27;9.85;99316.09;5093470;28;20028;-65
2023/07/09 07:57:08;;;;;;;2.60;1.90;;;;;;;47.56;7.78;99314.09;5096852;28;20043;-64
2023/07/09 07:59:35;;;;;;;3.78;2.10;;;;;;;47.43;7.78;99310.72;5096574;28;20452;-62
2023/07/09 08:02:02;;;;;;;3.20;1.88;;;;;;;47.62;7.76;99314.56;5087978;28;20029;-63
2023/07/09 08:04:28;;;;;;;3.55;1.88;;;;;;;47.99;7.26;99308.88;5089338;28;20028;-63
2023/07/09 08:06:54;;;;;;;4.53;2.40;;;;;;;47.25;7.95;99299.94;5094902;28;20059;-62
2023/07/09 08:09:19;;;;;;;2.10;2.00;;;;;;;47.13;7.88;99303.06;5095199;28;20126;-63
2023/07/09 08:11:45;;;;;;;3.22;2.00;;;;;;;47.54;7.92;99300.31;5095772;28;20111;-62
2023/07/09 08:14:11;;;;;;;3.20;2.05;;;;;;;48.21;7.73;99305.41;5095228;28;20032;-62
2023/07/09 08:16:36;;;;;;;2.35;1.85;;;;;;;47.97;7.56;99270.72;5096150;28;20028;-62
2023/07/09 08:19:02;;;;;;;3.20;2.00;;;;;;;48.38;7.40;99295.41;5096273;28;20035;-62
2023/07/09 08:21:28;;;;;;;2.72;2.08;;;;;;;48.20;7.57;99295.25;5080056;28;20360;-66
2023/07/09 08:23:53;;;;;;;4.32;2.10;;;;;;;47.23;7.87;99295.88;5074373;28;20028;-65
2023/07/09 08:26:19;;;;;;;2.75;2.20;;;;;;;46.01;8.64;99285.19;5091063;28;20115;-66
2023/07/09 08:28:44;;;;;;;2.88;2.20;;;;;;;43.81;10.14;99265.09;5095786;28;20113;-65
2023/07/09 08:31:10;;;;;;;3.08;2.20;;;;;;;41.40;11.75;99277.63;5094092;28;20032;-65
2023/07/09 08:33:36;;;;;;;5.47;2.30;;;;;;;38.84;13.66;99292.56;5095693;28;20039;-64
2023/07/09 08:36:01;;;;;;;5.32;2.20;;;;;;;36.64;15.81;99288.38;5095767;28;20042;-66
2023/07/09 08:38:27;;;;;;;5.85;2.88;;;;;;;34.57;17.89;99283.47;5093907;28;20103;-68
2023/07/09 08:40:59;;;;;;;2.63;2.38;;;;;;;33.28;19.57;99289.13;5095974;28;20062;-64
2023/07/09 08:43:54;;;;;;;3.67;2.53;;;;;;;32.46;20.07;99277.34;5093735;28;20491;-65
2023/07/09 08:46:34;;;;;;;6.67;2.40;;;;;;;31.76;20.63;99272.50;5091950;28;20036;-66
2023/07/09 08:49:03;;;;;;;6.13;2.40;;;;;;;31.38;21.19;99263.69;5074720;28;20036;-67
2023/07/09 08:51:39;;;;;;;4.32;2.40;;;;;;;31.38;21.30;99272.78;5075167;28;20517;-66
2023/07/09 08:54:14;;;;;;;4.95;2.25;;;;;;;30.69;21.85;99259.09;5074864;28;20074;-64
2023/07/09 08:56:41;;;;;;;6.35;2.13;;;;;;;30.31;23.07;99259.22;5075473;28;20040;-66
2023/07/09 08:59:12;;;;;;;4.93;2.35;;;;;;;30.42;22.40;99259.25;5074962;28;20099;-66
2023/07/09 09:01:44;;;;;;;2.95;2.50;;;;;;;30.38;23.17;99225.81;5076307;28;20068;-66
2023/07/09 09:04:15;;;;;;;7.43;2.67;;;;;;;30.51;23.69;99244.66;5074057;28;20036;-65
2023/07/09 09:06:45;;;;;;;4.07;2.40;;;;;;;30.48;23.80;99242.44;5074903;28;20067;-64
2023/07/09 09:09:53;;;;;;;2.70;2.15;;;;;;;30.58;22.81;99249.06;5075813;28;20041;-67
2023/07/09 09:12:29;;;;;;;2.35;2.00;;;;;;;30.15;22.78;99246.41;5013016;28;20138;-64
2023/07/09 09:14:58;;;;;;;;;;;;;;;30.79;21.70;99241.72;5069701;28;20036;-63
2023/07/09 09:17:29;;;;;;;4.78;2.30;;;;;;;29.65;23.32;99246.66;5074100;28;20318;-65
2023/07/09 09:19:59;;;;;;;2.67;2.10;;;;;;;29.27;24.29;99245.75;5074671;28;20029;-65
2023/07/09 09:22:36;;;;;;;6.40;2.47;;;;;;;29.02;23.96;99237.00;5074665;28;20453;-64
2023/07/09 09:25:27;;;;;;;4.65;2.08;;;;;;;29.34;23.86;99236.16;5076511;28;20040;-65
2023/07/09 09:27:52;;;;;;;3.22;2.03;;;;;;;29.43;23.72;99217.25;5054376;28;20547;-64
2023/07/09 09:30:23;;;;;;;4.68;2.30;;;;;;;29.50;24.21;99208.75;5066573;28;20032;-64
2023/07/09 09:33:00;;;;;;;2.95;2.65;;;;;;;29.56;24.56;99232.50;5093405;28;20039;-64
2023/07/09 09:35:49;;;;;;;2.90;2.33;;;;;;;29.36;24.00;99233.97;5095112;28;20039;-66
2023/07/09 09:38:21;;;;;;;3.50;2.55;;;;;;;29.02;24.82;99220.47;5094651;28;20359;-64
2023/07/09 09:40:47;;;;;;;3.03;2.40;;;;;;;28.69;25.45;99224.22;5089236;28;20035;-64
2023/07/09 09:43:16;;;;;;;3.35;2.50;;;;;;;28.56;25.62;99219.97;5074186;28;20032;-64
2023/07/09 09:45:44;;;;;;;4.63;2.65;;;;;;;28.39;26.19;99223.63;5074677;28;20025;-63
2023/07/09 09:48:28;;;;;;;9.85;2.13;;;;;;;28.18;26.42;99192.25;5074283;28;20358;-64
2023/07/09 09:50:57;;;;;;;7.53;2.72;;;;;;;28.20;25.88;99212.91;5074088;28;20021;-64
2023/07/09 09:53:24;;;;;;;3.20;2.38;;;;;;;28.48;26.26;99221.25;5054043;28;20068;-64
2023/07/09 09:55:55;;;;;;;4.15;2.38;;;;;;;28.83;25.26;99209.00;5054343;28;20369;-66
2023/07/09 09:58:27;;;;;;;4.45;2.50;;;;;;;29.19;25.23;99219.53;5053936;28;20041;-64
2023/07/09 10:00:55;;;;;;;5.15;2.50;;;;;;;29.13;24.56;99195.75;5068457;28;20029;-65
2023/07/09 10:03:21;;;;;;;6.85;2.72;;;;;;;29.20;25.27;99210.16;5074106;28;20037;-64
2023/07/09 10:05:56;;;;;;;5.80;2.70;;;;;;;29.29;25.63;99207.72;5072729;28;20029;-65
2023/07/09 10:08:21;;;;;;;;;;;;;;;29.83;24.43;99203.19;5074221;28;20376;-64
2023/07/09 10:10:47;;;;;;;3.87;2.80;;;;;;;29.27;25.52;99207.16;5073791;28;19973;-64
2023/07/09 10:13:22;;;;;;;5.15;2.50;;;;;;;29.13;25.35;99201.25;5073702;28;20032;-64
2023/07/09 10:15:56;;;;;;;5.57;2.42;;;;;;;29.22;25.25;99189.50;5074664;28;20024;-65
2023/07/09 10:18:43;;;;;;;3.30;2.13;;;;;;;29.32;25.24;99199.75;5082803;28;20434;-65
2023/07/09 10:21:15;;;;;;;5.28;2.55;;;;;;;29.24;24.80;99203.03;5094092;28;20024;-65
2023/07/09 10:23:50;;;;;;;7.68;2.45;;;;;;;29.20;25.27;99188.91;5093666;28;20028;-65
2023/07/09 10:26:29;;;;;;;3.40;2.13;;;;;;;29.20;25.35;99201.88;5093549;28;20032;-63
2023/07/09 10:29:53;;;;;;;5.32;2.35;;;;;;;29.23;24.67;99195.84;5092775;28;20127;-64
2023/07/09 10:32:25;;;;;;;7.68;2.85;;;;;;;29.21;24.56;99193.34;5021503;28;20033;-64
2023/07/09 10:35:16;;;;;;;2.92;2.20;;;;;;;29.50;24.48;99190.28;5011853;28;20128;-64
2023/07/09 10:37:42;;;;;;;3.08;2.33;;;;;;;29.49;24.05;99174.00;5062375;28;20036;-64
2023/07/09 10:40:12;;;;;;;4.32;2.33;;;;;;;29.70;24.75;99187.94;5073105;28;20040;-69
2023/07/09 10:42:44;;;;;;;5.22;2.50;;;;;;;29.75;25.10;99185.19;5073298;28;20024;-68
2023/07/09 10:45:13;;;;;;;6.57;2.35;;;;;;;29.53;24.77;99182.56;5073303;28;20024;-66
2023/07/09 10:47:47;;;;;;;6.50;2.67;;;;;;;29.23;25.28;99182.06;5073111;28;20103;-68
2023/07/09 10:50:18;;;;;;;4.78;2.47;;;;;;;29.07;25.52;99173.66;5073017;28;20044;-64
2023/07/09 10:52:47;;;;;;;7.88;2.33;;;;;;;29.12;25.37;99161.84;5074375;28;20032;-64
2023/07/09 10:55:19;;;;;;;6.60;2.17;;;;;;;29.43;24.83;99188.88;5073011;28;20040;-64
2023/07/09 10:57:56;;;;;;;5.95;2.03;;;;;;;29.63;24.75;99180.69;5072762;28;20047;-65
2023/07/09 11:00:33;;;;;;;8.63;2.45;;;;;;;29.73;25.12;99181.88;5073943;28;20032;-64
2023/07/09 11:03:03;;;;;;;3.75;2.40;;;;;;;29.70;25.11;99179.66;5072000;28;20498;-66
2023/07/09 11:05:30;;;;;;;8.88;2.55;;;;;;;29.61;25.13;99165.53;5072597;28;20045;-63
2023/07/09 11:08:05;;;;;;;8.07;2.67;;;;;;;29.59;25.26;99176.81;5072601;28;20044;-64
2023/07/09 11:10:39;;;;;;;5.80;2.17;;;;;;;29.65;25.17;99184.03;5072859;28;20089;-65
2023/07/09 11:13:29;;;;;;;6.50;2.38;;;;;;;29.74;24.93;99180.78;5089671;28;20455;-64
2023/07/09 11:15:57;;;;;;;9.30;2.90;;;;;;;29.68;25.48;99162.53;5092629;28;20036;-64
2023/07/09 11:18:30;;;;;;;12.30;3.00;;;;;;;29.92;25.14;99174.81;5092803;28;20029;-64
2023/07/09 11:21:01;;;;;;;4.63;2.60;;;;;;;29.94;25.09;99169.84;5091266;28;20024;-65
2023/07/09 11:23:49;;;;;;;5.78;2.20;;;;;;;29.96;24.90;99161.28;5092617;28;20071;-64
2023/07/09 11:26:27;;;;;;;4.15;2.15;;;;;;;29.81;24.82;99162.06;5091527;28;20561;-64
2023/07/09 11:28:55;;;;;;;4.32;2.45;;;;;;;29.68;24.65;99168.88;5091658;28;20062;-65
2023/07/09 11:31:38;;;;;;;3.67;2.33;;;;;;;29.86;24.56;99164.81;5092651;28;20105;-64
2023/07/09 11:34:06;;;;;;;5.43;2.15;;;;;;;29.89;24.73;99164.28;5091394;28;20039;-65
2023/07/09 11:36:33;;;;;;;6.30;2.20;;;;;;;29.91;24.95;99161.28;5090687;28;20044;-65
2023/07/09 11:38:58;;;;;;;3.30;2.50;;;;;;;29.92;23.86;99154.66;5092494;28;20024;-65